sensor_id;sensor_type;location;lat;lon;timestamp;temperature;humidity
15556;DHT22;7879;48.660;9.116;2023-02-15T00:01:54;-0.70;99.90
15556;DHT22;7879;48.660;9.116;2023-02-15T00:04:25;-0.60;99.90
15556;DHT22;7879;48.660;9.116;2023-02-15T00:07:16;-0.50;99.90
15556;DHT22;7879;48.660;9.116;2023-02-15T00:09:45;-0.60;99.90
15556;DHT22;7879;48.660;9.116;2023-02-15T00:12:13;-0.60;99.90
15556;DHT22;7879;48.660;9.116;2023-02-15T00:14:40;-0.70;99.90
15556;DHT22;7879;48.660;9.116;2023-02-15T00:17:08;-0.70;99.90
15556;DHT22;7879;48.660;9.116;2023-02-15T00:19:36;-0.70;99.90
15556;DHT22;7879;48.660;9.116;2023-02-15T00:22:02;-0.70;99.90
15556;DHT22;7879;48.660;9.116;2023-02-15T00:24:29;-0.80;99.90
15556;DHT22;7879;48.660;9.116;2023-02-15T00:26:57;-0.80;99.90
15556;DHT22;7879;48.660;9.116;2023-02-15T00:29:24;-0.80;99.90
15556;DHT22;7879;48.660;9.116;2023-02-15T00:31:51;-0.80;99.90
15556;DHT22;7879;48.660;9.116;2023-02-15T00:34:21;-0.90;99.90
15556;DHT22;7879;48.660;9.116;2023-02-15T00:36:49;-0.80;99.90
15556;DHT22;7879;48.660;9.116;2023-02-15T00:39:17;-0.90;99.90
15556;DHT22;7879;48.660;9.116;2023-02-15T00:41:45;-1.00;99.90
15556;DHT22;7879;48.660;9.116;2023-02-15T00:44:13;-1.00;99.90
15556;DHT22;7879;48.660;9.116;2023-02-15T00:46:41;-1.00;99.90
15556;DHT22;7879;48.660;9.116;2023-02-15T00:49:08;-1.00;99.90
15556;DHT22;7879;48.660;9.116;2023-02-15T00:51:38;-1.00;99.90
15556;DHT22;7879;48.660;9.116;2023-02-15T00:54:06;-0.90;99.90
15556;DHT22;7879;48.660;9.116;2023-02-15T00:56:36;-0.90;99.90
15556;DHT22;7879;48.660;9.116;2023-02-15T00:59:03;-1.00;99.90
15556;DHT22;7879;48.660;9.116;2023-02-15T01:01:31;-1.10;99.90
15556;DHT22;7879;48.660;9.116;2023-02-15T01:03:58;-1.10;99.90
15556;DHT22;7879;48.660;9.116;2023-02-15T01:06:25;-1.20;99.90
15556;DHT22;7879;48.660;9.116;2023-02-15T01:08:55;-1.20;99.90
15556;DHT22;7879;48.660;9.116;2023-02-15T01:11:23;-1.20;99.90
15556;DHT22;7879;48.660;9.116;2023-02-15T01:13:52;-1.10;99.90
15556;DHT22;7879;48.660;9.116;2023-02-15T01:16:21;-1.10;99.90
15556;DHT22;7879;48.660;9.116;2023-02-15T01:18:48;-1.10;99.90
15556;DHT22;7879;48.660;9.116;2023-02-15T01:21:17;-1.10;99.90
15556;DHT22;7879;48.660;9.116;2023-02-15T01:23:44;-1.10;99.90
15556;DHT22;7879;48.660;9.116;2023-02-15T01:26:12;-1.20;99.90
15556;DHT22;7879;48.660;9.116;2023-02-15T01:28:39;-1.20;99.90
15556;DHT22;7879;48.660;9.116;2023-02-15T01:31:12;-1.20;99.90
15556;DHT22;7879;48.660;9.116;2023-02-15T01:33:39;-1.30;99.90
15556;DHT22;7879;48.660;9.116;2023-02-15T01:36:06;-1.30;99.90
15556;DHT22;7879;48.660;9.116;2023-02-15T01:38:34;-1.30;99.90
15556;DHT22;7879;48.660;9.116;2023-02-15T01:41:02;-1.30;99.90
15556;DHT22;7879;48.660;9.116;2023-02-15T01:43:52;-1.20;99.90
15556;DHT22;7879;48.660;9.116;2023-02-15T01:46:24;-1.20;99.90
15556;DHT22;7879;48.660;9.116;2023-02-15T01:49:00;-1.40;99.90
15556;DHT22;7879;48.660;9.116;2023-02-15T01:51:31;-1.40;99.90
15556;DHT22;7879;48.660;9.116;2023-02-15T01:54:41;-1.50;99.90
15556;DHT22;7879;48.660;9.116;2023-02-15T01:57:10;-1.50;99.90
15556;DHT22;7879;48.660;9.116;2023-02-15T01:59:40;-1.50;99.90
15556;DHT22;7879;48.660;9.116;2023-02-15T02:02:11;-1.40;99.90
15556;DHT22;7879;48.660;9.116;2023-02-15T02:04:49;-1.60;99.90
15556;DHT22;7879;48.660;9.116;2023-02-15T02:07:20;-1.60;99.90
15556;DHT22;7879;48.660;9.116;2023-02-15T02:09:48;-1.50;99.90
15556;DHT22;7879;48.660;9.116;2023-02-15T02:12:17;-1.60;99.90
15556;DHT22;7879;48.660;9.116;2023-02-15T02:14:45;-1.50;99.90
15556;DHT22;7879;48.660;9.116;2023-02-15T02:19:53;-1.70;99.90
15556;DHT22;7879;48.660;9.116;2023-02-15T02:36:47;-1.70;99.90
15556;DHT22;7879;48.660;9.116;2023-02-15T02:39:40;-1.80;99.90
15556;DHT22;7879;48.660;9.116;2023-02-15T02:42:22;-1.80;99.90
15556;DHT22;7879;48.660;9.116;2023-02-15T02:48:15;-1.90;99.90
15556;DHT22;7879;48.660;9.116;2023-02-15T02:50:40;-1.90;99.90
15556;DHT22;7879;48.660;9.116;2023-02-15T02:53:09;-1.90;99.90
15556;DHT22;7879;48.660;9.116;2023-02-15T02:58:39;-1.90;99.90
15556;DHT22;7879;48.660;9.116;2023-02-15T03:01:20;-1.90;99.90
15556;DHT22;7879;48.660;9.116;2023-02-15T03:03:56;-1.90;99.90
15556;DHT22;7879;48.660;9.116;2023-02-15T03:09:28;-1.90;99.90
15556;DHT22;7879;48.660;9.116;2023-02-15T03:12:18;-1.90;99.90
15556;DHT22;7879;48.660;9.116;2023-02-15T03:14:49;-2.00;99.90
15556;DHT22;7879;48.660;9.116;2023-02-15T03:17:20;-2.00;99.90
15556;DHT22;7879;48.660;9.116;2023-02-15T03:19:50;-2.00;99.90
15556;DHT22;7879;48.660;9.116;2023-02-15T03:22:23;-2.00;99.90
15556;DHT22;7879;48.660;9.116;2023-02-15T03:27:41;-2.00;99.90
15556;DHT22;7879;48.660;9.116;2023-02-15T03:30:11;-2.00;99.90
15556;DHT22;7879;48.660;9.116;2023-02-15T03:32:39;-2.00;99.90
15556;DHT22;7879;48.660;9.116;2023-02-15T03:35:08;-2.00;99.90
15556;DHT22;7879;48.660;9.116;2023-02-15T03:37:47;-2.00;99.90
15556;DHT22;7879;48.660;9.116;2023-02-15T03:40:39;-2.00;99.90
15556;DHT22;7879;48.660;9.116;2023-02-15T03:46:26;-2.00;99.90
15556;DHT22;7879;48.660;9.116;2023-02-15T03:49:00;-2.00;99.90
15556;DHT22;7879;48.660;9.116;2023-02-15T03:51:31;-2.10;99.90
15556;DHT22;7879;48.660;9.116;2023-02-15T03:56:40;-2.00;99.90
15556;DHT22;7879;48.660;9.116;2023-02-15T03:59:07;-2.00;99.90
15556;DHT22;7879;48.660;9.116;2023-02-15T04:02:14;-1.90;99.90
15556;DHT22;7879;48.660;9.116;2023-02-15T04:04:47;-2.00;99.90
15556;DHT22;7879;48.660;9.116;2023-02-15T04:07:14;-2.00;99.90
15556;DHT22;7879;48.660;9.116;2023-02-15T04:09:41;-2.00;99.90
15556;DHT22;7879;48.660;9.116;2023-02-15T04:12:26;-2.10;99.90
15556;DHT22;7879;48.660;9.116;2023-02-15T04:14:53;-2.10;99.90
15556;DHT22;7879;48.660;9.116;2023-02-15T04:17:39;-2.10;99.90
15556;DHT22;7879;48.660;9.116;2023-02-15T04:20:07;-2.20;99.90
15556;DHT22;7879;48.660;9.116;2023-02-15T04:22:53;-2.10;99.90
15556;DHT22;7879;48.660;9.116;2023-02-15T04:25:39;-2.20;99.90
15556;DHT22;7879;48.660;9.116;2023-02-15T04:28:06;-2.20;99.90
15556;DHT22;7879;48.660;9.116;2023-02-15T04:30:34;-2.20;99.90
15556;DHT22;7879;48.660;9.116;2023-02-15T04:33:01;-2.20;99.90
15556;DHT22;7879;48.660;9.116;2023-02-15T04:35:28;-2.30;99.90
15556;DHT22;7879;48.660;9.116;2023-02-15T04:37:55;-2.30;99.90
15556;DHT22;7879;48.660;9.116;2023-02-15T04:40:22;-2.30;99.90
15556;DHT22;7879;48.660;9.116;2023-02-15T04:42:49;-2.30;99.90
15556;DHT22;7879;48.660;9.116;2023-02-15T04:45:16;-2.30;99.90
15556;DHT22;7879;48.660;9.116;2023-02-15T04:47:44;-2.30;99.90
15556;DHT22;7879;48.660;9.116;2023-02-15T04:50:14;-2.30;99.90
15556;DHT22;7879;48.660;9.116;2023-02-15T04:52:41;-2.30;99.90
15556;DHT22;7879;48.660;9.116;2023-02-15T04:55:08;-2.30;99.90
15556;DHT22;7879;48.660;9.116;2023-02-15T04:57:35;-2.30;99.90
15556;DHT22;7879;48.660;9.116;2023-02-15T05:00:03;-2.30;99.90
15556;DHT22;7879;48.660;9.116;2023-02-15T05:02:30;-2.30;99.90
15556;DHT22;7879;48.660;9.116;2023-02-15T05:04:57;-2.30;99.90
15556;DHT22;7879;48.660;9.116;2023-02-15T05:07:24;-2.30;99.90
15556;DHT22;7879;48.660;9.116;2023-02-15T05:09:51;-2.40;99.90
15556;DHT22;7879;48.660;9.116;2023-02-15T05:12:18;-2.40;99.90
15556;DHT22;7879;48.660;9.116;2023-02-15T05:14:45;-2.40;99.90
15556;DHT22;7879;48.660;9.116;2023-02-15T05:17:12;-2.40;99.90
15556;DHT22;7879;48.660;9.116;2023-02-15T05:19:39;-2.40;99.90
15556;DHT22;7879;48.660;9.116;2023-02-15T05:22:06;-2.40;99.90
15556;DHT22;7879;48.660;9.116;2023-02-15T05:24:33;-2.40;99.90
15556;DHT22;7879;48.660;9.116;2023-02-15T05:27:18;-2.40;99.90
15556;DHT22;7879;48.660;9.116;2023-02-15T05:30:04;-2.40;99.90
15556;DHT22;7879;48.660;9.116;2023-02-15T05:32:32;-2.40;99.90
15556;DHT22;7879;48.660;9.116;2023-02-15T05:34:59;-2.50;99.90
15556;DHT22;7879;48.660;9.116;2023-02-15T05:37:26;-2.50;99.90
15556;DHT22;7879;48.660;9.116;2023-02-15T05:39:52;-2.50;99.90
15556;DHT22;7879;48.660;9.116;2023-02-15T05:42:19;-2.60;99.90
15556;DHT22;7879;48.660;9.116;2023-02-15T05:44:47;-2.60;99.90
15556;DHT22;7879;48.660;9.116;2023-02-15T05:47:14;-2.60;99.90
15556;DHT22;7879;48.660;9.116;2023-02-15T05:49:41;-2.60;99.90
15556;DHT22;7879;48.660;9.116;2023-02-15T05:52:08;-2.70;99.90
15556;DHT22;7879;48.660;9.116;2023-02-15T05:54:35;-2.70;99.90
15556;DHT22;7879;48.660;9.116;2023-02-15T05:57:02;-2.70;99.90
15556;DHT22;7879;48.660;9.116;2023-02-15T05:59:29;-2.70;99.90
15556;DHT22;7879;48.660;9.116;2023-02-15T06:01:56;-2.70;99.90
15556;DHT22;7879;48.660;9.116;2023-02-15T06:04:23;-2.70;99.90
15556;DHT22;7879;48.660;9.116;2023-02-15T06:06:49;-2.70;99.90
15556;DHT22;7879;48.660;9.116;2023-02-15T06:09:16;-2.80;99.90
15556;DHT22;7879;48.660;9.116;2023-02-15T06:11:45;-2.80;99.90
15556;DHT22;7879;48.660;9.116;2023-02-15T06:14:13;-2.80;99.90
15556;DHT22;7879;48.660;9.116;2023-02-15T06:16:40;-2.80;99.90
15556;DHT22;7879;48.660;9.116;2023-02-15T06:19:07;-2.80;99.90
15556;DHT22;7879;48.660;9.116;2023-02-15T06:21:34;-2.80;99.90
15556;DHT22;7879;48.660;9.116;2023-02-15T06:24:01;-2.90;99.90
15556;DHT22;7879;48.660;9.116;2023-02-15T06:26:28;-2.90;99.90
15556;DHT22;7879;48.660;9.116;2023-02-15T06:28:55;-3.00;99.90
15556;DHT22;7879;48.660;9.116;2023-02-15T06:31:22;-3.00;99.90
15556;DHT22;7879;48.660;9.116;2023-02-15T06:33:49;-3.10;99.90
15556;DHT22;7879;48.660;9.116;2023-02-15T06:36:16;-3.00;99.90
15556;DHT22;7879;48.660;9.116;2023-02-15T06:38:43;-3.00;99.90
15556;DHT22;7879;48.660;9.116;2023-02-15T06:41:10;-3.00;99.90
15556;DHT22;7879;48.660;9.116;2023-02-15T06:43:37;-3.10;99.90
15556;DHT22;7879;48.660;9.116;2023-02-15T06:46:06;-3.00;99.90
15556;DHT22;7879;48.660;9.116;2023-02-15T06:48:33;-3.00;99.90
15556;DHT22;7879;48.660;9.116;2023-02-15T06:51:00;-3.10;99.90
15556;DHT22;7879;48.660;9.116;2023-02-15T06:53:27;-3.10;99.90
15556;DHT22;7879;48.660;9.116;2023-02-15T06:56:03;-3.10;99.90
15556;DHT22;7879;48.660;9.116;2023-02-15T06:58:33;-3.10;99.90
15556;DHT22;7879;48.660;9.116;2023-02-15T07:01:00;-3.10;99.90
15556;DHT22;7879;48.660;9.116;2023-02-15T07:03:27;-3.10;99.90
15556;DHT22;7879;48.660;9.116;2023-02-15T07:05:58;-3.10;99.90
15556;DHT22;7879;48.660;9.116;2023-02-15T07:08:27;-3.10;99.90
15556;DHT22;7879;48.660;9.116;2023-02-15T07:10:55;-3.10;99.90
15556;DHT22;7879;48.660;9.116;2023-02-15T07:13:42;-3.10;99.90
15556;DHT22;7879;48.660;9.116;2023-02-15T07:16:10;-3.10;99.90
15556;DHT22;7879;48.660;9.116;2023-02-15T07:18:38;-3.10;99.90
15556;DHT22;7879;48.660;9.116;2023-02-15T07:21:06;-3.00;99.90
15556;DHT22;7879;48.660;9.116;2023-02-15T07:23:38;-3.00;99.90
15556;DHT22;7879;48.660;9.116;2023-02-15T07:26:06;-3.00;99.90
15556;DHT22;7879;48.660;9.116;2023-02-15T07:28:34;-3.10;99.90
15556;DHT22;7879;48.660;9.116;2023-02-15T07:31:02;-3.10;99.90
15556;DHT22;7879;48.660;9.116;2023-02-15T07:33:31;-3.10;99.90
15556;DHT22;7879;48.660;9.116;2023-02-15T07:36:00;-3.10;99.90
15556;DHT22;7879;48.660;9.116;2023-02-15T07:38:36;-3.00;99.90
15556;DHT22;7879;48.660;9.116;2023-02-15T07:41:06;-3.00;99.90
15556;DHT22;7879;48.660;9.116;2023-02-15T07:43:36;-2.90;99.90
15556;DHT22;7879;48.660;9.116;2023-02-15T07:46:06;-2.90;99.90
15556;DHT22;7879;48.660;9.116;2023-02-15T07:48:37;-2.80;99.90
15556;DHT22;7879;48.660;9.116;2023-02-15T07:51:06;-2.80;99.90
15556;DHT22;7879;48.660;9.116;2023-02-15T07:53:34;-2.70;99.90
15556;DHT22;7879;48.660;9.116;2023-02-15T07:56:03;-2.70;99.90
15556;DHT22;7879;48.660;9.116;2023-02-15T07:58:30;-2.60;99.90
15556;DHT22;7879;48.660;9.116;2023-02-15T08:01:27;-2.50;99.90
15556;DHT22;7879;48.660;9.116;2023-02-15T08:03:54;-2.50;99.90
15556;DHT22;7879;48.660;9.116;2023-02-15T08:06:24;-2.40;99.90
15556;DHT22;7879;48.660;9.116;2023-02-15T08:08:51;-2.30;99.90
15556;DHT22;7879;48.660;9.116;2023-02-15T08:14:27;-2.30;99.90
15556;DHT22;7879;48.660;9.116;2023-02-15T08:19:27;-2.10;99.90
15556;DHT22;7879;48.660;9.116;2023-02-15T08:22:01;-2.10;99.90
15556;DHT22;7879;48.660;9.116;2023-02-15T08:24:32;-2.00;99.90
15556;DHT22;7879;48.660;9.116;2023-02-15T08:27:00;-2.00;99.90
15556;DHT22;7879;48.660;9.116;2023-02-15T08:29:33;-1.80;99.90
15556;DHT22;7879;48.660;9.116;2023-02-15T08:32:02;-1.80;99.90
15556;DHT22;7879;48.660;9.116;2023-02-15T08:34:33;-1.70;99.90
15556;DHT22;7879;48.660;9.116;2023-02-15T08:37:00;-1.70;99.90
15556;DHT22;7879;48.660;9.116;2023-02-15T08:39:27;-1.50;99.90
15556;DHT22;7879;48.660;9.116;2023-02-15T08:41:55;-1.50;99.90
15556;DHT22;7879;48.660;9.116;2023-02-15T08:44:22;-1.40;99.90
15556;DHT22;7879;48.660;9.116;2023-02-15T08:46:50;-1.30;99.90
15556;DHT22;7879;48.660;9.116;2023-02-15T08:49:21;-1.20;99.90
15556;DHT22;7879;48.660;9.116;2023-02-15T08:51:48;-1.10;99.90
15556;DHT22;7879;48.660;9.116;2023-02-15T08:54:18;-1.00;99.90
15556;DHT22;7879;48.660;9.116;2023-02-15T08:56:46;-0.90;99.90
15556;DHT22;7879;48.660;9.116;2023-02-15T08:59:21;-0.70;99.90
15556;DHT22;7879;48.660;9.116;2023-02-15T09:01:50;-0.60;99.90
15556;DHT22;7879;48.660;9.116;2023-02-15T09:04:18;-0.50;99.90
15556;DHT22;7879;48.660;9.116;2023-02-15T09:06:46;-0.40;99.90
15556;DHT22;7879;48.660;9.116;2023-02-15T09:09:16;-0.30;99.90
15556;DHT22;7879;48.660;9.116;2023-02-15T09:11:45;-0.10;99.90
15556;DHT22;7879;48.660;9.116;2023-02-15T09:14:20;0.20;99.90
15556;DHT22;7879;48.660;9.116;2023-02-15T09:16:48;0.30;99.90
15556;DHT22;7879;48.660;9.116;2023-02-15T09:19:19;0.50;99.90
15556;DHT22;7879;48.660;9.116;2023-02-15T09:21:47;0.70;99.90
15556;DHT22;7879;48.660;9.116;2023-02-15T09:24:15;0.90;99.90
15556;DHT22;7879;48.660;9.116;2023-02-15T09:26:45;1.10;99.90
15556;DHT22;7879;48.660;9.116;2023-02-15T09:29:13;1.30;99.90
15556;DHT22;7879;48.660;9.116;2023-02-15T09:31:43;1.50;99.90
15556;DHT22;7879;48.660;9.116;2023-02-15T09:34:16;1.70;99.90
15556;DHT22;7879;48.660;9.116;2023-02-15T09:36:44;1.80;99.90
15556;DHT22;7879;48.660;9.116;2023-02-15T09:39:16;2.10;99.90
15556;DHT22;7879;48.660;9.116;2023-02-15T09:53:21;3.30;99.90
15556;DHT22;7879;48.660;9.116;2023-02-15T09:56:14;3.60;99.90
15556;DHT22;7879;48.660;9.116;2023-02-15T10:05:02;4.50;99.90
15556;DHT22;7879;48.660;9.116;2023-02-15T10:15:33;5.70;99.90
15556;DHT22;7879;48.660;9.116;2023-02-15T10:21:35;6.40;99.90
15556;DHT22;7879;48.660;9.116;2023-02-15T10:24:24;6.70;99.90
15556;DHT22;7879;48.660;9.116;2023-02-15T10:27:07;6.80;99.90
15556;DHT22;7879;48.660;9.116;2023-02-15T10:29:39;7.10;99.90
15556;DHT22;7879;48.660;9.116;2023-02-15T10:32:25;7.30;99.90
15556;DHT22;7879;48.660;9.116;2023-02-15T10:40:28;7.60;99.90
15556;DHT22;7879;48.660;9.116;2023-02-15T10:43:14;7.80;99.90
15556;DHT22;7879;48.660;9.116;2023-02-15T10:48:21;8.30;99.90
15556;DHT22;7879;48.660;9.116;2023-02-15T10:50:55;8.60;99.90
15556;DHT22;7879;48.660;9.116;2023-02-15T10:56:23;8.90;99.90
15556;DHT22;7879;48.660;9.116;2023-02-15T10:59:19;9.10;99.90
15556;DHT22;7879;48.660;9.116;2023-02-15T11:02:16;9.40;99.90
15556;DHT22;7879;48.660;9.116;2023-02-15T11:04:54;9.60;99.90
15556;DHT22;7879;48.660;9.116;2023-02-15T11:12:50;10.00;99.90
15556;DHT22;7879;48.660;9.116;2023-02-15T11:18:36;10.20;99.90
15556;DHT22;7879;48.660;9.116;2023-02-15T11:23:46;10.50;99.90
15556;DHT22;7879;48.660;9.116;2023-02-15T11:26:36;10.60;99.90
15556;DHT22;7879;48.660;9.116;2023-02-15T11:29:25;10.50;99.90
15556;DHT22;7879;48.660;9.116;2023-02-15T11:32:03;10.80;99.90
15556;DHT22;7879;48.660;9.116;2023-02-15T11:34:45;11.00;99.90
15556;DHT22;7879;48.660;9.116;2023-02-15T11:37:19;11.20;99.90
15556;DHT22;7879;48.660;9.116;2023-02-15T11:39:47;11.30;99.70
15556;DHT22;7879;48.660;9.116;2023-02-15T11:42:21;11.40;98.60
15556;DHT22;7879;48.660;9.116;2023-02-15T11:47:48;11.70;98.70
15556;DHT22;7879;48.660;9.116;2023-02-15T11:50:17;11.90;97.90
15556;DHT22;7879;48.660;9.116;2023-02-15T11:52:50;11.90;98.10
15556;DHT22;7879;48.660;9.116;2023-02-15T11:55:22;11.90;97.30
15556;DHT22;7879;48.660;9.116;2023-02-15T12:01:14;12.10;97.10
15556;DHT22;7879;48.660;9.116;2023-02-15T12:03:48;12.00;96.00
15556;DHT22;7879;48.660;9.116;2023-02-15T12:06:28;12.20;96.00
15556;DHT22;7879;48.660;9.116;2023-02-15T12:09:33;12.40;96.20
15556;DHT22;7879;48.660;9.116;2023-02-15T12:14:53;12.30;96.00
15556;DHT22;7879;48.660;9.116;2023-02-15T12:22:50;11.90;96.20
15556;DHT22;7879;48.660;9.116;2023-02-15T12:25:49;11.90;95.80
15556;DHT22;7879;48.660;9.116;2023-02-15T12:28:25;11.80;95.40
15556;DHT22;7879;48.660;9.116;2023-02-15T12:30:55;11.80;95.90
15556;DHT22;7879;48.660;9.116;2023-02-15T12:33:27;11.70;98.00
15556;DHT22;7879;48.660;9.116;2023-02-15T12:36:02;11.70;98.30
15556;DHT22;7879;48.660;9.116;2023-02-15T12:38:30;11.60;98.40
15556;DHT22;7879;48.660;9.116;2023-02-15T12:43:35;11.50;99.70
15556;DHT22;7879;48.660;9.116;2023-02-15T12:46:25;11.40;99.90
15556;DHT22;7879;48.660;9.116;2023-02-15T12:49:19;11.30;99.90
15556;DHT22;7879;48.660;9.116;2023-02-15T12:57:30;11.20;99.90
15556;DHT22;7879;48.660;9.116;2023-02-15T13:04:58;11.10;99.90
15556;DHT22;7879;48.660;9.116;2023-02-15T13:07:31;11.10;99.90
15556;DHT22;7879;48.660;9.116;2023-02-15T13:09:58;11.20;99.90
15556;DHT22;7879;48.660;9.116;2023-02-15T13:12:30;11.20;99.90
15556;DHT22;7879;48.660;9.116;2023-02-15T13:14:59;11.20;99.70
15556;DHT22;7879;48.660;9.116;2023-02-15T13:17:31;11.20;99.90
15556;DHT22;7879;48.660;9.116;2023-02-15T13:20:20;11.30;99.90
15556;DHT22;7879;48.660;9.116;2023-02-15T13:22:54;11.30;99.90
15556;DHT22;7879;48.660;9.116;2023-02-15T13:25:26;11.30;99.90
15556;DHT22;7879;48.660;9.116;2023-02-15T13:27:57;11.30;99.90
15556;DHT22;7879;48.660;9.116;2023-02-15T13:30:37;11.30;99.90
15556;DHT22;7879;48.660;9.116;2023-02-15T13:33:10;11.30;99.90
15556;DHT22;7879;48.660;9.116;2023-02-15T13:41:47;11.40;99.90
15556;DHT22;7879;48.660;9.116;2023-02-15T13:44:38;11.40;99.90
15556;DHT22;7879;48.660;9.116;2023-02-15T13:53:13;11.40;99.90
15556;DHT22;7879;48.660;9.116;2023-02-15T13:55:53;11.40;99.90
15556;DHT22;7879;48.660;9.116;2023-02-15T14:07:23;11.40;99.90
15556;DHT22;7879;48.660;9.116;2023-02-15T14:15:48;11.50;99.90
15556;DHT22;7879;48.660;9.116;2023-02-15T14:30:29;11.40;99.90
15556;DHT22;7879;48.660;9.116;2023-02-15T14:33:16;11.30;99.30
15556;DHT22;7879;48.660;9.116;2023-02-15T14:35:46;11.30;99.10
15556;DHT22;7879;48.660;9.116;2023-02-15T14:41:17;11.20;98.80
15556;DHT22;7879;48.660;9.116;2023-02-15T14:49:42;11.20;98.10
15556;DHT22;7879;48.660;9.116;2023-02-15T14:52:10;11.20;97.90
15556;DHT22;7879;48.660;9.116;2023-02-15T14:59:57;11.20;96.90
15556;DHT22;7879;48.660;9.116;2023-02-15T15:05:17;11.10;95.90
15556;DHT22;7879;48.660;9.116;2023-02-15T15:07:50;11.10;95.20
15556;DHT22;7879;48.660;9.116;2023-02-15T15:12:48;11.00;95.90
15556;DHT22;7879;48.660;9.116;2023-02-15T15:25:48;10.80;96.30
15556;DHT22;7879;48.660;9.116;2023-02-15T15:31:20;10.80;96.50
15556;DHT22;7879;48.660;9.116;2023-02-15T15:50:18;10.60;98.00
15556;DHT22;7879;48.660;9.116;2023-02-15T15:52:55;10.50;98.30
15556;DHT22;7879;48.660;9.116;2023-02-15T15:55:29;10.50;98.20
15556;DHT22;7879;48.660;9.116;2023-02-15T15:58:00;10.50;98.40
15556;DHT22;7879;48.660;9.116;2023-02-15T16:00:50;10.50;98.80
15556;DHT22;7879;48.660;9.116;2023-02-15T16:03:25;10.40;98.80
15556;DHT22;7879;48.660;9.116;2023-02-15T16:05:53;10.40;99.10
15556;DHT22;7879;48.660;9.116;2023-02-15T16:08:36;10.30;99.30
15556;DHT22;7879;48.660;9.116;2023-02-15T16:11:15;10.30;99.30
15556;DHT22;7879;48.660;9.116;2023-02-15T16:13:43;10.30;99.20
15556;DHT22;7879;48.660;9.116;2023-02-15T16:16:12;10.30;99.30
15556;DHT22;7879;48.660;9.116;2023-02-15T16:18:40;10.20;99.40
15556;DHT22;7879;48.660;9.116;2023-02-15T16:21:17;10.20;99.50
15556;DHT22;7879;48.660;9.116;2023-02-15T16:23:56;10.10;99.70
15556;DHT22;7879;48.660;9.116;2023-02-15T16:26:53;10.00;99.70
15556;DHT22;7879;48.660;9.116;2023-02-15T16:29:30;10.00;99.90
15556;DHT22;7879;48.660;9.116;2023-02-15T16:32:20;9.90;99.90
15556;DHT22;7879;48.660;9.116;2023-02-15T16:35:02;9.80;99.90
15556;DHT22;7879;48.660;9.116;2023-02-15T16:37:33;9.60;99.90
15556;DHT22;7879;48.660;9.116;2023-02-15T16:40:01;9.50;99.90
15556;DHT22;7879;48.660;9.116;2023-02-15T16:42:28;9.40;99.90
15556;DHT22;7879;48.660;9.116;2023-02-15T16:45:07;9.30;99.90
15556;DHT22;7879;48.660;9.116;2023-02-15T16:47:40;9.10;99.90
15556;DHT22;7879;48.660;9.116;2023-02-15T16:50:18;9.00;99.90
15556;DHT22;7879;48.660;9.116;2023-02-15T16:52:46;8.90;99.90
15556;DHT22;7879;48.660;9.116;2023-02-15T16:55:23;8.90;99.90
15556;DHT22;7879;48.660;9.116;2023-02-15T16:57:53;8.80;99.90
15556;DHT22;7879;48.660;9.116;2023-02-15T17:00:25;8.70;99.90
15556;DHT22;7879;48.660;9.116;2023-02-15T17:05:50;8.70;99.90
15556;DHT22;7879;48.660;9.116;2023-02-15T17:08:42;8.60;99.90
15556;DHT22;7879;48.660;9.116;2023-02-15T17:11:34;8.50;99.90
15556;DHT22;7879;48.660;9.116;2023-02-15T17:16:32;8.20;99.90
15556;DHT22;7879;48.660;9.116;2023-02-15T17:19:09;8.20;99.90
15556;DHT22;7879;48.660;9.116;2023-02-15T17:22:06;8.10;99.90
15556;DHT22;7879;48.660;9.116;2023-02-15T17:24:44;8.00;99.90
15556;DHT22;7879;48.660;9.116;2023-02-15T17:27:20;7.80;99.90
15556;DHT22;7879;48.660;9.116;2023-02-15T17:29:52;7.80;99.90
15556;DHT22;7879;48.660;9.116;2023-02-15T17:32:24;7.60;99.90
15556;DHT22;7879;48.660;9.116;2023-02-15T17:37:48;7.30;99.90
15556;DHT22;7879;48.660;9.116;2023-02-15T17:40:27;7.20;99.90
15556;DHT22;7879;48.660;9.116;2023-02-15T17:42:55;7.00;99.90
15556;DHT22;7879;48.660;9.116;2023-02-15T17:45:26;6.90;99.90
15556;DHT22;7879;48.660;9.116;2023-02-15T17:47:53;6.90;99.90
15556;DHT22;7879;48.660;9.116;2023-02-15T17:50:22;6.80;99.90
15556;DHT22;7879;48.660;9.116;2023-02-15T17:52:53;6.70;99.90
15556;DHT22;7879;48.660;9.116;2023-02-15T17:55:23;6.60;99.90
15556;DHT22;7879;48.660;9.116;2023-02-15T17:58:12;6.60;99.90
15556;DHT22;7879;48.660;9.116;2023-02-15T18:00:47;6.40;99.90
15556;DHT22;7879;48.660;9.116;2023-02-15T18:03:46;6.30;99.90
15556;DHT22;7879;48.660;9.116;2023-02-15T18:06:34;6.20;99.90
15556;DHT22;7879;48.660;9.116;2023-02-15T18:09:21;6.10;99.90
15556;DHT22;7879;48.660;9.116;2023-02-15T18:12:29;6.00;99.90
15556;DHT22;7879;48.660;9.116;2023-02-15T18:14:57;5.90;99.90
15556;DHT22;7879;48.660;9.116;2023-02-15T18:17:35;5.80;99.90
15556;DHT22;7879;48.660;9.116;2023-02-15T18:20:37;5.70;99.90
15556;DHT22;7879;48.660;9.116;2023-02-15T18:22:57;5.70;99.90
15556;DHT22;7879;48.660;9.116;2023-02-15T18:25:24;5.70;99.90
15556;DHT22;7879;48.660;9.116;2023-02-15T18:27:51;5.60;99.90
15556;DHT22;7879;48.660;9.116;2023-02-15T18:30:24;5.50;99.90
15556;DHT22;7879;48.660;9.116;2023-02-15T18:32:54;5.40;99.90
15556;DHT22;7879;48.660;9.116;2023-02-15T18:35:25;5.40;99.90
15556;DHT22;7879;48.660;9.116;2023-02-15T18:37:52;5.40;99.90
15556;DHT22;7879;48.660;9.116;2023-02-15T18:40:25;5.20;99.90
15556;DHT22;7879;48.660;9.116;2023-02-15T18:42:55;5.20;99.90
15556;DHT22;7879;48.660;9.116;2023-02-15T18:45:27;5.10;99.90
15556;DHT22;7879;48.660;9.116;2023-02-15T18:47:58;5.10;99.90
15556;DHT22;7879;48.660;9.116;2023-02-15T18:50:29;5.00;99.90
15556;DHT22;7879;48.660;9.116;2023-02-15T18:52:58;4.90;99.90
15556;DHT22;7879;48.660;9.116;2023-02-15T18:55:27;4.80;99.90
15556;DHT22;7879;48.660;9.116;2023-02-15T18:57:56;4.80;99.90
15556;DHT22;7879;48.660;9.116;2023-02-15T19:00:25;4.70;99.90
15556;DHT22;7879;48.660;9.116;2023-02-15T19:02:54;4.60;99.90
15556;DHT22;7879;48.660;9.116;2023-02-15T19:05:21;4.60;99.90
15556;DHT22;7879;48.660;9.116;2023-02-15T19:07:49;4.60;99.90
15556;DHT22;7879;48.660;9.116;2023-02-15T19:10:19;4.50;99.90
15556;DHT22;7879;48.660;9.116;2023-02-15T19:12:48;4.40;99.90
15556;DHT22;7879;48.660;9.116;2023-02-15T19:15:33;4.40;99.90
15556;DHT22;7879;48.660;9.116;2023-02-15T19:18:00;4.40;99.90
15556;DHT22;7879;48.660;9.116;2023-02-15T19:20:31;4.30;99.90
15556;DHT22;7879;48.660;9.116;2023-02-15T19:23:00;4.20;99.90
15556;DHT22;7879;48.660;9.116;2023-02-15T19:25:29;4.10;99.90
15556;DHT22;7879;48.660;9.116;2023-02-15T19:27:57;4.10;99.90
15556;DHT22;7879;48.660;9.116;2023-02-15T19:30:27;4.00;99.90
15556;DHT22;7879;48.660;9.116;2023-02-15T19:32:59;3.90;99.90
15556;DHT22;7879;48.660;9.116;2023-02-15T19:35:28;3.80;99.90
15556;DHT22;7879;48.660;9.116;2023-02-15T19:37:59;3.80;99.90
15556;DHT22;7879;48.660;9.116;2023-02-15T19:40:32;3.70;99.90
15556;DHT22;7879;48.660;9.116;2023-02-15T19:42:59;3.70;99.90
15556;DHT22;7879;48.660;9.116;2023-02-15T19:45:29;3.60;99.90
15556;DHT22;7879;48.660;9.116;2023-02-15T19:47:59;3.60;99.90
15556;DHT22;7879;48.660;9.116;2023-02-15T19:50:29;3.60;99.90
15556;DHT22;7879;48.660;9.116;2023-02-15T19:52:56;3.60;99.90
15556;DHT22;7879;48.660;9.116;2023-02-15T19:57:55;3.40;99.90
15556;DHT22;7879;48.660;9.116;2023-02-15T20:00:24;3.40;99.90
15556;DHT22;7879;48.660;9.116;2023-02-15T20:02:52;3.20;99.90